Arctic Bay — 9HTD8 — position and weather

sailwx.info

Track history (hours):
 
Tides and Currents Weather Stations Pressure Air Temp Water Temp Dewpoint Dewpoint Depression Visibility Wind Speed Wind Dir Waves Ship Positions

Arctic Bay

Last reported at 2016-Sep-25 17:33 UTC. Time now 2016-Sep-27 13:54 UTC.
Position S 02°32' W 044°23'.

Length 182 m; draft 10.2 m.

Type: Ship. MMSI: 256396000.

Date/timePositionNaut miles runAvg speedWind from/ knotsBaromVisibWave heightAir tempDewpointWater temp
2016-Sep-25 17:33S 02°32' W 044°23'3 2.5
2016-Sep-25 16:31S 02°34' W 044°23'0 0.0
2016-Sep-25 15:31S 02°34' W 044°23'0 0.0
2016-Sep-25 14:31S 02°34' W 044°23'0 0.0
2016-Sep-25 12:31S 02°34' W 044°23'0 0.0
2016-Sep-25 11:31S 02°34' W 044°23'0 0.0
2016-Sep-25 10:31S 02°34' W 044°23'0 0.0
2016-Sep-25 09:31S 02°34' W 044°23'0 0.0
2016-Sep-25 07:31S 02°34' W 044°23'0 0.0
2016-Sep-25 04:28S 02°34' W 044°23'0 0.0
2016-Sep-25 00:31S 02°34' W 044°23'0 0.0
2016-Sep-24 22:31S 02°34' W 044°23'0 0.0
2016-Sep-24 21:22S 02°34' W 044°23'0 0.0
2016-Sep-24 19:31S 02°34' W 044°23'0 0.0
2016-Sep-24 18:31S 02°34' W 044°23'0 0.0
2016-Sep-24 17:28S 02°34' W 044°23'2 2.2
2016-Sep-24 16:33S 02°32' W 044°23'2110.3
2016-Sep-24 14:33S 02°14' W 044°13'7 1.7
2016-Sep-24 10:31S 02°09' W 044°09'0 0.1
2016-Sep-24 09:31S 02°09' W 044°09'0 0.0
2016-Sep-23 19:19S 02°09' W 044°09'0 0.1
2016-Sep-23 17:31S 02°09' W 044°09'0 0.1
2016-Sep-23 15:19S 02°09' W 044°09'0 0.0
2016-Sep-23 06:34S 02°09' W 044°09'0 0.1
2016-Sep-23 04:33S 02°09' W 044°09'0 0.0
2016-Sep-22 03:28S 02°09' W 044°09'0 0.0
2016-Sep-21 19:30S 02°09' W 044°09'0 0.1
2016-Sep-21 16:19S 02°09' W 044°09'0 0.0
2016-Sep-20 14:29S 02°09' W 044°09'0 0.2
2016-Sep-20 13:31S 02°09' W 044°09'0 0.0
2016-Sep-20 06:25S 02°09' W 044°09'0 0.1
2016-Sep-20 02:28S 02°09' W 044°09'0 0.0
2016-Sep-19 18:13S 02°09' W 044°09'  
Track history (hours):
 
Tides and Currents Weather Stations Pressure Air Temp Water Temp Dewpoint Dewpoint Depression Visibility Wind Speed Wind Dir Waves Ship Positions

Arctic Bay

Last reported at 2016-Sep-25 17:33 UTC. Time now 2016-Sep-27 13:54 UTC.
Position S 02°32' W 044°23'.

Length 182 m; draft 10.2 m.

Type: Ship. MMSI: 256396000.

Date/timePositionNaut miles runAvg speedWind from/ knotsBaromVisibWave heightAir tempDewpointWater temp
2016-Sep-25 17:33S 02°32' W 044°23'3 2.5
2016-Sep-25 16:31S 02°34' W 044°23'0 0.0
2016-Sep-25 15:31S 02°34' W 044°23'0 0.0
2016-Sep-25 14:31S 02°34' W 044°23'0 0.0
2016-Sep-25 12:31S 02°34' W 044°23'0 0.0
2016-Sep-25 11:31S 02°34' W 044°23'0 0.0
2016-Sep-25 10:31S 02°34' W 044°23'0 0.0
2016-Sep-25 09:31S 02°34' W 044°23'0 0.0
2016-Sep-25 07:31S 02°34' W 044°23'0 0.0
2016-Sep-25 04:28S 02°34' W 044°23'0 0.0
2016-Sep-25 00:31S 02°34' W 044°23'0 0.0
2016-Sep-24 22:31S 02°34' W 044°23'0 0.0
2016-Sep-24 21:22S 02°34' W 044°23'0 0.0
2016-Sep-24 19:31S 02°34' W 044°23'0 0.0
2016-Sep-24 18:31S 02°34' W 044°23'0 0.0
2016-Sep-24 17:28S 02°34' W 044°23'2 2.2
2016-Sep-24 16:33S 02°32' W 044°23'2110.3
2016-Sep-24 14:33S 02°14' W 044°13'7 1.7
2016-Sep-24 10:31S 02°09' W 044°09'0 0.1
2016-Sep-24 09:31S 02°09' W 044°09'0 0.0
2016-Sep-23 19:19S 02°09' W 044°09'0 0.1
2016-Sep-23 17:31S 02°09' W 044°09'0 0.1
2016-Sep-23 15:19S 02°09' W 044°09'0 0.0
2016-Sep-23 06:34S 02°09' W 044°09'0 0.1
2016-Sep-23 04:33S 02°09' W 044°09'0 0.0
2016-Sep-22 03:28S 02°09' W 044°09'0 0.0
2016-Sep-21 19:30S 02°09' W 044°09'0 0.1
2016-Sep-21 16:19S 02°09' W 044°09'0 0.0
2016-Sep-20 14:29S 02°09' W 044°09'0 0.2
2016-Sep-20 13:31S 02°09' W 044°09'0 0.0
2016-Sep-20 06:25S 02°09' W 044°09'0 0.1
2016-Sep-20 02:28S 02°09' W 044°09'0 0.0
2016-Sep-19 18:13S 02°09' W 044°09'  

Dump ship's entire track history